createdAt,value
2019-03-23T00:04:54.619Z,95.3
2019-03-23T00:09:54.943Z,96.3
2019-03-23T00:14:54.731Z,96.3
2019-03-23T00:19:54.919Z,97.7
2019-03-23T00:24:54.770Z,98.5
2019-03-23T00:29:54.663Z,98.5
2019-03-23T00:34:54.709Z,97.5
2019-03-23T00:39:54.748Z,98.9
2019-03-23T00:44:54.774Z,98.7
2019-03-23T00:49:54.822Z,99.2
2019-03-23T00:54:54.857Z,98.1
2019-03-23T00:59:54.537Z,99.4
2019-03-23T01:04:54.700Z,99.6
2019-03-23T01:09:54.698Z,100
2019-03-23T01:14:54.561Z,99.3
2019-03-23T01:19:54.762Z,99.7
2019-03-23T01:24:54.835Z,100
2019-03-23T01:29:54.797Z,100
2019-03-23T01:34:54.766Z,99.6
2019-03-23T01:39:54.663Z,99.8
2019-03-23T01:44:54.589Z,100
2019-03-23T01:49:54.773Z,100
2019-03-23T01:54:54.691Z,100
2019-03-23T01:59:54.720Z,100
2019-03-23T02:04:54.569Z,100
2019-03-23T02:09:54.464Z,100
2019-03-23T02:14:54.488Z,100
2019-03-23T02:19:54.749Z,100
2019-03-23T02:24:54.802Z,100
2019-03-23T02:29:54.558Z,100
2019-03-23T02:34:54.470Z,100
2019-03-23T02:39:54.820Z,100
2019-03-23T02:44:54.486Z,100
2019-03-23T02:49:54.540Z,100
2019-03-23T02:54:54.599Z,100
2019-03-23T02:59:54.507Z,100
2019-03-23T03:04:54.687Z,100
2019-03-23T03:09:54.593Z,100
2019-03-23T03:14:54.572Z,100
2019-03-23T03:19:54.401Z,100
2019-03-23T03:24:54.497Z,100
2019-03-23T03:29:54.704Z,100
2019-03-23T03:34:54.778Z,100
2019-03-23T03:39:54.646Z,100
2019-03-23T03:44:54.457Z,100
2019-03-23T03:49:54.476Z,100
2019-03-23T03:54:54.529Z,100
2019-03-23T03:59:54.324Z,100
2019-03-23T04:04:54.365Z,100
2019-03-23T04:09:54.512Z,100
2019-03-23T04:14:54.502Z,100
2019-03-23T04:19:54.431Z,100
2019-03-23T04:24:54.586Z,100
2019-03-23T04:29:54.555Z,100
2019-03-23T04:34:54.398Z,100
2019-03-23T04:39:54.588Z,100
2019-03-23T04:44:54.558Z,100
2019-03-23T04:49:54.351Z,100
2019-03-23T04:54:54.256Z,100
2019-03-23T04:59:54.516Z,100
2019-03-23T05:04:54.340Z,100
2019-03-23T05:09:54.563Z,100
2019-03-23T05:14:54.217Z,100
2019-03-23T05:19:54.189Z,100
2019-03-23T05:24:54.219Z,100
2019-03-23T05:29:54.458Z,100
2019-03-23T05:34:54.336Z,100
2019-03-23T05:39:54.329Z,100
2019-03-23T05:44:54.444Z,100
2019-03-23T05:49:54.353Z,100
2019-03-23T05:54:54.096Z,100
2019-03-23T05:59:54.235Z,100
2019-03-23T06:04:54.309Z,100
2019-03-23T06:09:54.263Z,100
2019-03-23T06:14:54.449Z,100
2019-03-23T06:19:54.515Z,100
2019-03-23T06:24:54.110Z,100
2019-03-23T06:29:54.235Z,100
2019-03-23T06:34:54.038Z,100
2019-03-23T06:39:54.219Z,100
2019-03-23T06:44:54.488Z,100
2019-03-23T06:49:54.009Z,100
2019-03-23T06:54:54.110Z,100
2019-03-23T06:59:53.998Z,100
2019-03-23T07:04:54.201Z,100
2019-03-23T07:09:54.101Z,100
2019-03-23T07:14:54.355Z,100
2019-03-23T07:19:53.979Z,100
2019-03-23T07:24:54.160Z,100
2019-03-23T07:29:53.905Z,100
2019-03-23T07:34:54.223Z,100
2019-03-23T07:39:54.189Z,100
2019-03-23T07:44:54.219Z,100
2019-03-23T07:49:54.021Z,100
2019-03-23T07:54:54.192Z,100
2019-03-23T07:59:54.262Z,99.5
2019-03-23T08:04:54.232Z,98.2
2019-03-23T08:09:53.991Z,98.1
2019-03-23T08:14:54.228Z,97.7
2019-03-23T08:19:53.956Z,96
2019-03-23T08:24:54.062Z,95.5
2019-03-23T08:29:53.953Z,95.7
2019-03-23T08:34:54.021Z,96.1
2019-03-23T08:39:54.010Z,95.6
2019-03-23T08:44:53.872Z,95
2019-03-23T08:49:54.052Z,94.4
2019-03-23T08:54:53.928Z,94.8
2019-03-23T08:59:54.272Z,94.1
2019-03-23T09:04:54.194Z,95.1
2019-03-23T09:09:59.068Z,95.5
2019-03-23T09:14:54.122Z,92.9
2019-03-23T09:19:53.997Z,89.7
2019-03-23T09:24:56.949Z,92.3
2019-03-23T09:29:54.238Z,92.1
2019-03-23T09:34:54.063Z,90.9
2019-03-23T09:39:53.997Z,90.4
2019-03-23T09:44:53.763Z,89.6
2019-03-23T09:49:53.942Z,89.2
2019-03-23T09:54:53.737Z,87.9
2019-03-23T09:59:53.733Z,88.9
2019-03-23T10:04:53.887Z,87.9
2019-03-23T10:09:53.804Z,88.6
2019-03-23T10:14:53.770Z,87.5
2019-03-23T10:19:53.824Z,87.8
2019-03-23T10:24:53.768Z,85
2019-03-23T10:29:53.987Z,85.4
2019-03-23T10:34:54.034Z,84.4
2019-03-23T10:39:53.894Z,86.2
2019-03-23T10:44:53.767Z,86.8
2019-03-23T10:49:53.796Z,85.9
2019-03-23T10:54:53.929Z,86.8
2019-03-23T10:59:53.929Z,86.4
2019-03-23T11:04:53.627Z,87.3
2019-03-23T11:09:53.848Z,87.3
2019-03-23T11:14:53.707Z,86.3
2019-03-23T11:19:53.703Z,84.6
2019-03-23T11:24:53.816Z,84.8
2019-03-23T11:29:53.937Z,83.8
2019-03-23T11:34:53.604Z,84.8
2019-03-23T11:39:54.109Z,85.4
2019-03-23T11:44:54.044Z,84.7
2019-03-23T11:49:53.655Z,84.8
2019-03-23T11:54:53.586Z,85.4
2019-03-23T11:59:53.751Z,86.3
2019-03-23T12:04:53.581Z,87.9
2019-03-23T12:09:55.947Z,90
2019-03-23T12:14:53.691Z,90.3
2019-03-23T12:19:53.663Z,90.2
2019-03-23T12:24:53.802Z,90.4
2019-03-23T12:29:53.536Z,90.6
2019-03-23T12:34:53.838Z,91
2019-03-23T12:39:53.521Z,89.8
2019-03-23T12:44:53.576Z,88.1
2019-03-23T12:49:53.606Z,89.3
2019-03-23T12:54:53.730Z,91.2
2019-03-23T12:59:53.501Z,87.6
2019-03-23T13:04:53.698Z,87.1
2019-03-23T13:09:53.487Z,86.2
2019-03-23T13:14:53.471Z,85
2019-03-23T13:19:53.736Z,85.5
2019-03-23T13:24:53.486Z,82.9
2019-03-23T13:29:53.713Z,78.5
2019-03-23T13:34:53.378Z,77.5
2019-03-23T13:39:53.755Z,71.9
2019-03-23T13:44:53.616Z,70.3
2019-03-23T13:49:53.719Z,70
2019-03-23T13:54:53.453Z,71.2
2019-03-23T13:59:53.748Z,69.7
2019-03-23T14:04:53.371Z,69.8
2019-03-23T14:09:53.487Z,68.3
2019-03-23T14:14:53.356Z,68.3
2019-03-23T14:19:53.466Z,66.9
2019-03-23T14:24:53.406Z,67.5
2019-03-23T14:29:53.749Z,68
2019-03-23T14:34:53.401Z,65.5
2019-03-23T14:39:53.351Z,65.1
2019-03-23T14:44:53.416Z,61.5
2019-03-23T14:49:53.596Z,61.7
2019-03-23T14:54:53.443Z,59.4
2019-03-23T14:59:53.535Z,59.9
2019-03-23T15:04:53.657Z,59.7
2019-03-23T15:09:53.328Z,60.1
2019-03-23T15:14:53.477Z,60.4
2019-03-23T15:19:53.537Z,60.4
2019-03-23T15:24:53.580Z,62.7
2019-03-23T15:29:53.453Z,58.9
2019-03-23T15:34:53.585Z,59.6
2019-03-23T15:39:53.259Z,62.1
2019-03-23T15:44:53.274Z,57.5
2019-03-23T15:49:53.448Z,56.5
2019-03-23T15:54:53.208Z,58.3
2019-03-23T15:59:53.188Z,60.6
2019-03-23T16:04:53.272Z,63.6
2019-03-23T16:09:53.352Z,62.8
2019-03-23T16:14:53.296Z,59.9
2019-03-23T16:19:53.395Z,60.7
2019-03-23T16:24:53.319Z,59.9
2019-03-23T16:29:53.326Z,59.1
2019-03-23T16:34:53.253Z,60.4
2019-03-23T16:39:53.459Z,60.9
2019-03-23T16:44:53.415Z,60.4
2019-03-23T16:49:53.162Z,60.5
2019-03-23T16:54:53.076Z,61.2
2019-03-23T16:59:53.319Z,61.4
2019-03-23T17:04:53.248Z,62.8
2019-03-23T17:09:53.319Z,63.4
2019-03-23T17:14:53.292Z,63.3
2019-03-23T17:19:53.140Z,63.5
2019-03-23T17:24:53.224Z,66.9
2019-03-23T17:29:53.322Z,66.6
2019-03-23T17:34:53.487Z,65.8
2019-03-23T17:39:53.039Z,65.7
2019-03-23T17:44:53.076Z,67.3
2019-03-23T17:49:53.298Z,68
2019-03-23T17:54:53.044Z,69
2019-03-23T17:59:53.356Z,67.9
2019-03-23T18:04:53.168Z,67.2
2019-03-23T18:09:53.125Z,67.1
2019-03-23T18:14:53.389Z,67.8
2019-03-23T18:19:53.336Z,69.2
2019-03-23T18:24:53.258Z,71
2019-03-23T18:29:53.235Z,72.5
2019-03-23T18:34:53.317Z,73.6
2019-03-23T18:39:53.377Z,74.6
2019-03-23T18:44:53.342Z,76.5
2019-03-23T18:49:52.988Z,77.1
2019-03-23T18:54:53.227Z,77
2019-03-23T18:59:53.073Z,78.1
2019-03-23T19:04:53.073Z,78.1
2019-03-23T19:09:52.993Z,78.7
2019-03-23T19:14:53.024Z,79.9
2019-03-23T19:19:53.017Z,80.9
2019-03-23T19:24:53.137Z,81.8
2019-03-23T19:29:53.266Z,83
2019-03-23T19:34:53.212Z,84
2019-03-23T19:39:53.260Z,84.5
2019-03-23T19:44:53.079Z,84.8
2019-03-23T19:49:52.929Z,85.6
2019-03-23T19:54:53.214Z,86
2019-03-23T19:59:52.985Z,86.6
2019-03-23T20:04:52.968Z,87.7
2019-03-23T20:09:53.226Z,87.8
2019-03-23T20:14:52.827Z,88.7
2019-03-23T20:19:53.083Z,88.4
2019-03-23T20:24:52.860Z,89.2
2019-03-23T20:29:52.932Z,89.7
2019-03-23T20:34:53.004Z,89.9
2019-03-23T20:39:53.042Z,90.2
2019-03-23T20:44:52.916Z,90.6
2019-03-23T20:49:52.874Z,90.5
2019-03-23T20:54:52.961Z,91.4
2019-03-23T20:59:53.045Z,92.3
2019-03-23T21:04:52.990Z,92.6
2019-03-23T21:09:53.102Z,92.4
2019-03-23T21:14:52.751Z,92.2
2019-03-23T21:19:52.858Z,92.5
2019-03-23T21:24:53.074Z,92.8
2019-03-23T21:29:52.928Z,93.3
2019-03-23T21:34:53.068Z,93.6
2019-03-23T21:39:52.905Z,93.4
2019-03-23T21:44:52.992Z,93.6
2019-03-23T21:49:52.874Z,93.5
2019-03-23T21:54:52.784Z,93.4
2019-03-23T21:59:53.027Z,92.3
2019-03-23T22:04:52.840Z,93.4
2019-03-23T22:09:52.808Z,93
2019-03-23T22:14:52.780Z,93.2
2019-03-23T22:19:52.824Z,92.7
2019-03-23T22:24:52.855Z,92.8
2019-03-23T22:29:52.853Z,92.9
2019-03-23T22:34:52.775Z,93.4
2019-03-23T22:39:52.744Z,92.7
2019-03-23T22:44:52.938Z,93.2
2019-03-23T22:49:52.890Z,93.7
2019-03-23T22:54:52.876Z,93.2
2019-03-23T22:59:52.913Z,93.7
2019-03-23T23:04:52.638Z,93.4
2019-03-23T23:09:52.937Z,93.7
2019-03-23T23:15:03.802Z,93.5
2019-03-23T23:19:52.779Z,93.1
2019-03-23T23:24:52.823Z,93.5
2019-03-23T23:29:52.737Z,92.9
2019-03-23T23:34:52.600Z,93.7
2019-03-23T23:39:53.007Z,93.7
2019-03-23T23:44:52.806Z,93.7
2019-03-23T23:49:52.801Z,94.8
2019-03-23T23:54:52.569Z,93.9
2019-03-23T23:59:52.708Z,95.3
